Time;durP1;ratioP1;P1;durP2;ratioP2;P2;SDS_P1;SDS_P2;PMS_P1;PMS_P2;Temp;Humidity;BMP_temperature;BMP_pressure;BME280_temperature;BME280_humidity;BME280_pressure;Samples;Min_cycle;Max_cycle;Signal;HPM_P1;HPM_P2
2021/05/07 05:31:23;;;;;;;18.82;13.18;;;;;;;7.01;82.93;99140.82;1700178;79;26876;-66
2021/05/07 05:33:50;;;;;;;19.42;12.35;;;;;;;7.05;82.71;99136.42;1687047;83;25858;-66
2021/05/07 05:36:17;;;;;;;20.85;13.08;;;;;;;7.07;83.86;99142.27;1690538;83;25613;-66
2021/05/07 05:38:44;;;;;;;18.73;13.50;;;;;;;7.06;83.91;99136.08;1690870;83;25747;-67
2021/05/07 05:41:10;;;;;;;17.32;12.90;;;;;;;7.07;83.67;99137.67;1688301;83;25659;-67
2021/05/07 05:43:37;;;;;;;17.85;13.08;;;;;;;7.09;83.89;99142.18;1688958;83;25711;-68
2021/05/07 05:46:03;;;;;;;18.00;12.98;;;;;;;7.10;84.02;99137.05;1668017;83;25611;-66
2021/05/07 05:48:32;;;;;;;17.87;12.33;;;;;;;7.10;84.41;99145.12;1689470;83;25678;-66
2021/05/07 05:50:59;;;;;;;20.02;12.60;;;;;;;7.13;84.40;99142.91;1691106;83;25732;-60
2021/05/07 05:53:25;;;;;;;21.95;12.88;;;;;;;7.11;84.49;99143.22;1689724;83;25289;-60
2021/05/07 05:55:52;;;;;;;18.87;12.65;;;;;;;7.11;84.60;99145.34;1691574;83;25623;-60
2021/05/07 05:58:19;;;;;;;19.25;11.33;;;;;;;7.11;85.08;99148.59;1689556;83;25771;-60
2021/05/07 06:00:46;;;;;;;19.15;11.63;;;;;;;7.14;84.93;99150.66;1689290;83;25626;-60
2021/05/07 06:03:13;;;;;;;14.87;10.78;;;;;;;7.17;85.12;99142.50;1688734;83;26385;-60
2021/05/07 06:05:40;;;;;;;20.12;11.35;;;;;;;7.19;84.92;99149.16;1689001;83;26107;-60
2021/05/07 06:08:07;;;;;;;16.82;11.10;;;;;;;7.22;85.04;99149.89;1689582;83;25659;-60
2021/05/07 06:10:33;;;;;;;16.85;11.78;;;;;;;7.24;85.08;99146.89;1692360;83;26153;-60
2021/05/07 06:13:00;;;;;;;17.98;11.43;;;;;;;7.22;85.46;99138.31;1689874;83;25659;-61
2021/05/07 06:15:27;;;;;;;15.45;10.50;;;;;;;7.27;85.36;99146.23;1687191;83;26654;-60
2021/05/07 06:17:53;;;;;;;13.70;9.75;;;;;;;7.29;85.58;99144.05;1689199;83;26097;-61
2021/05/07 06:20:20;;;;;;;15.95;10.60;;;;;;;7.30;85.35;99146.95;1689884;83;25581;-60
2021/05/07 06:22:48;;;;;;;22.42;10.65;;;;;;;7.32;85.32;99146.64;1687400;83;26704;-60
2021/05/07 06:25:19;;;;;;;14.13;9.63;;;;;;;7.34;85.10;99144.42;1692000;83;25695;-67
2021/05/07 06:27:46;;;;;;;15.28;9.58;;;;;;;7.34;85.10;99146.58;1687600;83;26881;-66
2021/05/07 06:30:15;;;;;;;16.12;9.70;;;;;;;7.36;84.96;99153.78;1688623;83;25680;-66
2021/05/07 06:32:42;;;;;;;12.98;8.80;;;;;;;7.37;85.26;99151.34;1689892;83;26465;-66
2021/05/07 06:35:11;;;;;;;14.43;8.98;;;;;;;7.29;85.02;99136.76;1688213;83;25707;-66
2021/05/07 06:37:39;;;;;;;10.38;7.58;;;;;;;7.37;85.00;99154.56;1689297;83;25675;-66
2021/05/07 06:40:08;;;;;;;14.00;8.23;;;;;;;7.36;84.87;99146.27;1688205;83;25761;-65
2021/05/07 06:42:37;;;;;;;13.53;7.73;;;;;;;7.36;84.45;99147.05;1691908;83;25783;-65
2021/05/07 06:45:07;;;;;;;9.10;6.13;;;;;;;7.37;84.60;99148.65;1689301;83;25877;-65
2021/05/07 06:47:34;;;;;;;9.45;6.10;;;;;;;7.37;84.86;99149.18;1690202;83;25630;-65
2021/05/07 06:50:00;;;;;;;10.15;5.90;;;;;;;7.34;84.20;99145.77;1688626;83;25583;-65
2021/05/07 06:52:28;;;;;;;10.13;5.85;;;;;;;7.35;84.48;99142.77;1688011;83;25732;-65
2021/05/07 06:54:55;;;;;;;8.50;6.45;;;;;;;7.36;84.28;99146.27;1689255;83;25682;-64
2021/05/07 06:57:21;;;;;;;9.88;6.10;;;;;;;7.39;84.47;99142.39;1690642;83;25736;-65
2021/05/07 06:59:49;;;;;;;8.30;5.78;;;;;;;7.41;84.57;99138.05;1689095;83;25711;-66
2021/05/07 07:02:17;;;;;;;8.73;5.55;;;;;;;7.45;84.46;99137.08;1691749;83;25665;-64
2021/05/07 07:04:47;;;;;;;9.33;4.90;;;;;;;7.46;84.39;99131.95;1689849;83;25797;-65
2021/05/07 07:07:15;;;;;;;7.50;5.03;;;;;;;7.49;84.24;99134.55;1689768;83;26090;-64
2021/05/07 07:09:42;;;;;;;6.45;4.47;;;;;;;7.53;84.18;99131.47;1690679;83;25729;-64
2021/05/07 07:12:10;;;;;;;5.28;4.42;;;;;;;7.56;83.86;99124.12;1689826;83;25700;-64
2021/05/07 07:14:38;;;;;;;5.97;4.53;;;;;;;7.59;84.08;99130.75;1689898;83;25630;-64
2021/05/07 07:17:06;;;;;;;6.40;4.33;;;;;;;7.61;83.93;99125.30;1688577;83;26297;-64
2021/05/07 07:19:34;;;;;;;5.90;4.37;;;;;;;7.63;83.66;99131.72;1691211;83;25725;-64
2021/05/07 07:22:05;;;;;;;6.72;4.62;;;;;;;7.64;83.78;99124.67;1687864;83;25573;-64
2021/05/07 07:24:32;;;;;;;4.75;4.28;;;;;;;7.68;83.99;99120.79;1689459;83;25653;-61
2021/05/07 07:27:00;;;;;;;7.45;4.10;;;;;;;7.73;84.02;99123.86;1666169;83;25660;-61
2021/05/07 07:29:27;;;;;;;5.00;3.80;;;;;;;7.74;83.80;99128.14;1664492;83;26442;-61
2021/05/07 07:31:54;;;;;;;4.90;3.98;;;;;;;7.74;83.51;99125.45;1682056;83;26382;-61
2021/05/07 07:34:21;;;;;;;5.05;4.17;;;;;;;7.75;83.58;99127.83;1676970;84;25691;-61
2021/05/07 07:36:49;;;;;;;6.72;4.12;;;;;;;7.77;83.73;99122.91;1677173;84;25730;-61
2021/05/07 07:41:55;;;;;;;5.60;3.58;;;;;;;7.90;83.70;99131.93;1872825;75;34647;-61
2021/05/07 07:44:23;;;;;;;5.95;4.03;;;;;;;7.91;83.98;99126.77;1845910;76;25643;-61
2021/05/07 07:46:50;;;;;;;7.05;3.67;;;;;;;7.97;83.88;99122.02;1844588;76;25696;-61
2021/05/07 07:49:17;;;;;;;6.03;4.00;;;;;;;7.97;83.56;99125.50;1847337;76;25637;-61
2021/05/07 07:51:43;;;;;;;5.78;3.85;;;;;;;7.99;83.39;99119.80;1845688;76;26330;-61
2021/05/07 07:54:12;;;;;;;4.83;3.92;;;;;;;8.05;83.56;99123.88;1844791;76;25606;-60
2021/05/07 07:56:40;;;;;;;6.20;4.00;;;;;;;8.09;83.32;99121.34;1847211;76;25598;-61
2021/05/07 07:59:07;;;;;;;4.95;3.62;;;;;;;8.10;83.17;99131.02;1847874;76;25800;-61
2021/05/07 08:01:34;;;;;;;6.42;4.47;;;;;;;8.07;83.03;99128.42;1842133;76;25826;-61
2021/05/07 08:04:03;;;;;;;6.50;4.40;;;;;;;8.06;82.97;99129.52;1849072;76;26345;-62
2021/05/07 08:06:32;;;;;;;6.65;4.78;;;;;;;8.06;83.13;99122.00;1843456;76;26256;-62
2021/05/07 08:08:58;;;;;;;6.65;4.60;;;;;;;8.04;83.02;99130.40;1847540;76;25736;-62
2021/05/07 08:11:26;;;;;;;7.35;4.95;;;;;;;8.03;83.16;99130.16;1847586;76;26725;-62
2021/05/07 08:13:53;;;;;;;7.97;5.33;;;;;;;8.01;83.15;99122.39;1843007;76;25642;-60
2021/05/07 08:16:20;;;;;;;8.63;5.22;;;;;;;8.00;83.30;99128.09;1776029;79;26258;-60
2021/05/07 08:18:46;;;;;;;6.97;4.25;;;;;;;8.00;83.33;99134.83;1780086;79;25611;-60
2021/05/07 08:21:13;;;;;;;8.83;5.58;;;;;;;8.03;83.37;99140.36;1773820;79;25654;-61
2021/05/07 08:23:40;;;;;;;6.55;5.47;;;;;;;8.04;83.65;99137.13;1777446;79;26844;-61
2021/05/07 08:26:07;;;;;;;6.12;5.05;;;;;;;8.01;83.49;99130.47;1779605;79;25699;-63
2021/05/07 08:28:36;;;;;;;6.33;4.97;;;;;;;8.00;83.62;99137.52;1779307;79;34892;-63
2021/05/07 08:31:03;;;;;;;11.55;7.45;;;;;;;8.01;83.63;99143.94;1779657;79;25789;-63
2021/05/07 08:33:29;;;;;;;11.35;7.80;;;;;;;8.04;83.88;99151.38;1780254;79;25646;-64
2021/05/07 08:35:56;;;;;;;9.68;8.35;;;;;;;8.05;83.77;99152.16;1784649;79;25860;-61
2021/05/07 08:38:23;;;;;;;11.25;9.08;;;;;;;8.00;83.06;99157.72;1781766;79;25524;-61
2021/05/07 08:40:50;;;;;;;13.60;9.98;;;;;;;7.93;82.47;99161.45;1779441;79;25592;-61
2021/05/07 08:43:16;;;;;;;12.37;9.95;;;;;;;7.85;82.24;99161.71;1782816;79;25686;-60
2021/05/07 08:45:43;;;;;;;12.78;10.75;;;;;;;7.80;82.25;99166.70;1782111;79;25583;-60
2021/05/07 08:48:11;;;;;;;15.20;10.78;;;;;;;7.75;82.19;99166.86;1780415;79;27038;-64
2021/05/07 08:50:39;;;;;;;15.68;11.88;;;;;;;7.73;82.39;99170.42;1784212;79;25655;-63
2021/05/07 08:53:08;;;;;;;14.58;11.78;;;;;;;7.72;82.49;99168.05;1782216;79;25582;-64
2021/05/07 08:55:35;;;;;;;13.62;11.70;;;;;;;7.70;82.48;99175.09;1784116;79;25620;-64
2021/05/07 08:58:02;;;;;;;16.15;11.15;;;;;;;7.67;82.39;99168.98;1782168;79;25602;-65
2021/05/07 09:00:28;;;;;;;14.43;10.50;;;;;;;7.66;82.32;99175.47;1780344;79;25948;-64
2021/05/07 09:03:05;;;;;;;12.45;10.05;;;;;;;7.64;82.36;99187.92;1781193;79;25620;-65
2021/05/07 09:05:36;;;;;;;12.35;10.20;;;;;;;7.62;82.17;99182.60;1781616;79;25707;-64
2021/05/07 09:08:07;;;;;;;12.40;9.58;;;;;;;7.58;82.06;99188.39;1781671;79;26474;-64
2021/05/07 09:10:45;;;;;;;13.83;9.98;;;;;;;7.57;82.14;99188.14;1781575;79;25658;-63
2021/05/07 09:13:17;;;;;;;12.05;8.95;;;;;;;7.56;82.23;99190.05;1778768;79;25741;-63
2021/05/07 09:15:47;;;;;;;12.35;8.93;;;;;;;7.59;82.43;99192.09;1782309;79;25547;-64
2021/05/07 09:18:16;;;;;;;10.82;8.55;;;;;;;7.63;82.49;99200.34;1782696;79;25675;-64
2021/05/07 09:20:49;;;;;;;13.80;8.63;;;;;;;7.65;82.60;99197.56;1783883;79;25703;-64
2021/05/07 09:23:18;;;;;;;11.10;8.53;;;;;;;7.72;82.59;99207.08;1782459;79;25582;-63
2021/05/07 09:25:52;;;;;;;8.80;7.65;;;;;;;7.81;82.78;99202.48;1784060;79;32574;-63
2021/05/07 09:28:18;;;;;;;8.65;7.30;;;;;;;7.92;82.81;99200.27;1755067;79;25701;-64
2021/05/07 09:30:46;;;;;;;8.75;7.58;;;;;;;8.05;83.10;99201.98;1779655;79;25702;-63
2021/05/07 09:33:16;;;;;;;8.88;7.40;;;;;;;8.21;83.55;99209.81;1783970;79;25587;-64
2021/05/07 09:35:43;;;;;;;7.08;6.05;;;;;;;8.38;83.41;99208.22;1782768;79;25636;-64
2021/05/07 09:38:18;;;;;;;6.12;5.30;;;;;;;8.49;82.64;99215.42;1782726;79;26042;-64
2021/05/07 09:40:46;;;;;;;7.85;5.10;;;;;;;8.57;82.67;99214.61;1778479;79;26205;-64
2021/05/07 09:43:20;;;;;;;7.15;5.33;;;;;;;8.65;82.00;99216.50;1764560;79;25660;-65
2021/05/07 09:45:51;;;;;;;7.95;4.83;;;;;;;8.70;81.42;99219.02;1779005;79;25612;-64
2021/05/07 09:48:23;;;;;;;9.25;4.80;;;;;;;8.71;80.83;99215.75;1782984;79;25599;-64
2021/05/07 09:51:01;;;;;;;7.83;4.83;;;;;;;8.69;80.32;99224.16;1782457;79;25714;-64
2021/05/07 09:53:35;;;;;;;8.13;4.20;;;;;;;8.68;80.11;99225.27;1781508;79;26285;-65
2021/05/07 09:56:16;;;;;;;9.48;4.00;;;;;;;8.60;79.47;99229.58;1776694;79;25758;-63
2021/05/07 09:58:44;;;;;;;4.45;3.90;;;;;;;8.56;79.42;99236.74;1780919;79;25635;-66
2021/05/07 10:01:11;;;;;;;7.97;5.40;;;;;;;8.59;79.98;99240.69;1779548;79;25624;-65
2021/05/07 10:03:38;;;;;;;16.27;8.90;;;;;;;8.64;80.13;99241.86;1781835;79;25789;-65
2021/05/07 10:06:06;;;;;;;11.43;7.08;;;;;;;8.71;80.47;99246.76;1781320;79;25642;-65
2021/05/07 10:08:45;;;;;;;26.05;11.85;;;;;;;8.78;80.31;99247.05;1779484;79;25692;-64
2021/05/07 10:11:14;;;;;;;22.20;9.40;;;;;;;8.80;79.68;99250.20;1779983;79;26381;-58
2021/05/07 10:13:42;;;;;;;6.05;3.40;;;;;;;8.85;79.49;99254.64;1778998;79;25606;-59
2021/05/07 10:16:10;;;;;;;5.95;2.87;;;;;;;8.87;79.05;99247.02;1800754;78;25781;-64
2021/05/07 10:18:38;;;;;;;8.10;5.50;;;;;;;8.89;78.43;99248.29;1799955;78;25676;-65
2021/05/07 10:21:09;;;;;;;4.65;2.85;;;;;;;8.91;78.64;99252.80;1799820;78;25703;-61
2021/05/07 10:23:40;;;;;;;2.37;2.17;;;;;;;8.94;78.40;99260.25;1803048;78;25650;-60
2021/05/07 10:26:09;;;;;;;3.27;2.87;;;;;;;8.97;78.31;99268.23;1796567;78;25696;-58
2021/05/07 10:28:52;;;;;;;2.67;2.10;;;;;;;8.98;78.16;99269.27;1801371;78;26679;-59
2021/05/07 10:31:21;;;;;;;2.55;2.12;;;;;;;9.02;78.00;99272.11;1801940;78;25660;-60
2021/05/07 10:34:03;;;;;;;2.67;2.47;;;;;;;9.08;78.12;99279.48;1800457;78;25833;-59
2021/05/07 10:36:39;;;;;;;2.75;2.20;;;;;;;9.12;77.68;99279.06;1804319;78;26388;-59
2021/05/07 10:39:28;;;;;;;2.42;2.17;;;;;;;9.18;77.99;99276.42;1802770;78;25623;-60
2021/05/07 10:41:58;;;;;;;2.25;1.90;;;;;;;9.22;77.49;99277.34;1804298;78;25908;-59
2021/05/07 10:44:28;;;;;;;2.10;1.90;;;;;;;9.25;77.02;99280.75;1801413;78;25691;-61
2021/05/07 10:47:07;;;;;;;2.98;2.20;;;;;;;9.29;77.12;99287.64;1802471;78;25704;-59
2021/05/07 10:49:39;;;;;;;2.10;1.92;;;;;;;9.35;77.07;99294.45;1799687;78;26077;-60
2021/05/07 10:52:12;;;;;;;3.02;2.22;;;;;;;9.40;76.98;99298.85;1802181;78;25551;-60
2021/05/07 10:54:47;;;;;;;;;;;;;;;9.46;76.75;99296.21;1805261;78;25761;-60
2021/05/07 10:57:20;;;;;;;2.40;1.80;;;;;;;9.53;76.87;99297.83;1802949;78;25762;-60
2021/05/07 11:00:09;;;;;;;2.20;2.00;;;;;;;9.61;76.76;99292.95;1802467;78;26389;-60
2021/05/07 11:02:45;;;;;;;2.27;1.95;;;;;;;9.68;76.44;99291.09;1804526;78;25577;-59
2021/05/07 11:05:15;;;;;;;4.90;1.75;;;;;;;9.87;76.54;99286.59;1799264;78;26030;-60
2021/05/07 11:07:52;;;;;;;;;;;;;;;10.24;76.44;99274.64;1800754;78;25880;-59
2021/05/07 11:10:28;;;;;;;5.20;1.80;;;;;;;10.69;76.32;99282.02;1781270;79;26030;-70
2021/05/07 11:12:56;;;;;;;2.10;1.60;;;;;;;11.07;75.84;99278.28;1781381;79;25630;-70
2021/05/07 11:15:22;;;;;;;2.83;2.12;;;;;;;11.43;74.78;99272.65;1782221;79;25639;-68
2021/05/07 11:18:08;;;;;;;3.15;1.55;;;;;;;11.69;74.37;99276.91;1779363;79;25741;-68
2021/05/07 11:20:41;;;;;;;1.02;0.90;;;;;;;11.99;73.64;99280.73;1779024;79;25772;-67
2021/05/07 11:23:13;;;;;;;2.00;1.02;;;;;;;12.28;72.71;99276.33;1749355;79;25894;-68
2021/05/07 11:25:41;;;;;;;1.55;1.37;;;;;;;12.71;72.57;99269.92;1780435;79;26558;-68
2021/05/07 11:28:16;;;;;;;2.33;1.10;;;;;;;13.19;71.30;99278.86;1783470;79;25735;-71
2021/05/07 11:30:52;;;;;;;2.00;1.32;;;;;;;13.41;70.42;99280.77;1781872;79;25634;-73
2021/05/07 11:33:21;;;;;;;3.50;1.75;;;;;;;13.47;69.09;99287.52;1779532;79;26185;-72
2021/05/07 11:36:12;;;;;;;1.90;1.45;;;;;;;13.38;67.71;99284.19;1780444;79;25628;-70
2021/05/07 11:38:41;;;;;;;3.05;1.75;;;;;;;13.34;67.24;99281.39;1780214;79;25693;-72
2021/05/07 11:41:27;;;;;;;2.50;2.25;;;;;;;13.25;66.49;99275.34;1781958;79;25715;-73
2021/05/07 11:43:55;;;;;;;2.65;2.05;;;;;;;13.05;66.07;99281.24;1783086;79;25951;-71
2021/05/07 11:46:21;;;;;;;4.53;2.22;;;;;;;12.80;66.16;99277.31;1782541;79;26582;-72
2021/05/07 11:48:50;;;;;;;3.87;2.12;;;;;;;12.61;66.09;99279.92;1785206;79;26363;-72
2021/05/07 11:51:18;;;;;;;4.40;2.75;;;;;;;12.48;66.32;99277.27;1779066;79;26064;-72
2021/05/07 11:53:45;;;;;;;4.08;2.40;;;;;;;12.56;67.11;99285.59;1784267;79;25603;-72
2021/05/07 11:56:22;;;;;;;5.00;2.85;;;;;;;12.66;66.72;99287.81;1780838;79;25691;-73
2021/05/07 11:58:53;;;;;;;3.33;2.35;;;;;;;12.74;67.15;99282.80;1779824;79;25879;-74
2021/05/07 12:01:24;;;;;;;3.17;2.87;;;;;;;12.98;66.83;99279.14;1779709;79;25614;-71
2021/05/07 12:03:53;;;;;;;4.30;2.77;;;;;;;13.31;66.86;99277.98;1781083;79;25635;-61
2021/05/07 12:06:22;;;;;;;;;;;;;;;13.56;67.04;99283.25;1780369;79;26495;-60
2021/05/07 12:08:51;;;;;;;4.00;2.85;;;;;;;13.62;65.99;99288.62;1785058;79;25991;-60
2021/05/07 12:11:19;;;;;;;2.27;2.07;;;;;;;13.58;65.45;99287.18;1778765;79;25761;-60
2021/05/07 12:13:47;;;;;;;7.92;4.70;;;;;;;13.50;65.13;99284.11;1781753;79;25732;-60
2021/05/07 12:16:15;;;;;;;4.95;2.52;;;;;;;13.43;64.69;99295.59;1780979;79;26436;-60
2021/05/07 12:18:52;;;;;;;5.33;2.77;;;;;;;13.31;64.02;99289.42;1779455;79;25715;-60
2021/05/07 12:21:20;;;;;;;7.05;5.00;;;;;;;13.19;63.69;99299.23;1778726;79;25584;-60
2021/05/07 12:23:50;;;;;;;6.65;5.10;;;;;;;13.05;63.37;99304.31;1758215;79;25793;-59
2021/05/07 12:26:19;;;;;;;10.80;6.35;;;;;;;12.87;63.08;99306.56;1778440;79;25602;-60
2021/05/07 12:28:59;;;;;;;8.93;5.80;;;;;;;12.63;63.43;99313.72;1781179;79;25663;-60
2021/05/07 12:31:32;;;;;;;5.60;2.75;;;;;;;12.43;63.45;99315.49;1777912;79;25723;-60
2021/05/07 12:33:59;;;;;;;11.15;8.13;;;;;;;12.22;63.60;99328.43;1779205;79;25664;-60
2021/05/07 12:36:26;;;;;;;8.65;6.50;;;;;;;12.02;63.76;99328.27;1759175;79;25834;-60
2021/05/07 12:38:57;;;;;;;6.12;4.87;;;;;;;11.84;63.80;99322.27;1781630;79;25813;-60
2021/05/07 12:41:24;;;;;;;7.33;4.40;;;;;;;11.66;64.04;99319.56;1781747;79;25805;-60
2021/05/07 12:43:51;;;;;;;11.60;4.47;;;;;;;11.50;64.47;99320.83;1783335;79;25529;-60
2021/05/07 12:46:19;;;;;;;8.43;4.10;;;;;;;11.34;64.66;99320.69;1779262;79;25690;-59
2021/05/07 12:48:49;;;;;;;8.83;3.30;;;;;;;11.25;65.12;99320.02;1780154;79;26250;-60
2021/05/07 12:51:17;;;;;;;6.97;3.08;;;;;;;11.15;65.27;99316.63;1781916;79;26025;-60
2021/05/07 12:53:44;;;;;;;3.77;2.70;;;;;;;11.12;65.95;99308.41;1780991;79;25569;-60
2021/05/07 12:56:15;;;;;;;2.77;2.47;;;;;;;11.14;65.66;99310.20;1780551;79;26336;-60
2021/05/07 12:58:42;;;;;;;3.05;2.40;;;;;;;11.17;65.55;99316.30;1780217;79;25682;-60
2021/05/07 13:01:11;;;;;;;4.25;2.37;;;;;;;11.20;65.66;99321.02;1779506;79;25894;-60
2021/05/07 13:03:50;;;;;;;2.12;1.92;;;;;;;11.26;65.75;99318.90;1777717;79;25563;-60
2021/05/07 13:06:17;;;;;;;2.40;2.20;;;;;;;11.38;65.77;99321.61;1778194;79;25869;-60
2021/05/07 13:08:44;;;;;;;2.22;2.02;;;;;;;11.59;65.70;99316.08;1779925;79;25614;-59
2021/05/07 13:11:11;;;;;;;2.30;2.10;;;;;;;11.94;66.33;99318.34;1758681;79;26393;-60
2021/05/07 13:13:39;;;;;;;2.10;1.90;;;;;;;12.36;65.54;99310.42;1781833;79;25976;-59
2021/05/07 13:16:08;;;;;;;2.30;2.10;;;;;;;12.62;65.41;99318.13;1780024;79;26355;-59
2021/05/07 13:18:34;;;;;;;3.12;2.15;;;;;;;12.78;64.17;99310.02;1751696;79;25650;-60
2021/05/07 13:21:01;;;;;;;3.45;2.30;;;;;;;12.91;63.96;99297.18;1778649;79;25644;-59
2021/05/07 13:23:28;;;;;;;4.45;2.27;;;;;;;12.98;63.59;99296.78;1781649;79;25638;-59
2021/05/07 13:25:55;;;;;;;2.65;2.12;;;;;;;13.10;63.26;99301.34;1779926;79;25871;-59
2021/05/07 13:28:23;;;;;;;3.08;2.10;;;;;;;13.13;62.45;99295.77;1784158;79;25681;-59
2021/05/07 13:30:50;;;;;;;2.47;2.27;;;;;;;13.14;62.33;99296.00;1782430;79;25656;-59
2021/05/07 13:33:20;;;;;;;2.20;1.98;;;;;;;13.32;63.13;99300.55;1782508;79;25814;-59
2021/05/07 13:35:45;;;;;;;5.10;2.62;;;;;;;13.60;62.62;99301.22;1780662;79;25682;-59
2021/05/07 13:38:12;;;;;;;4.67;2.50;;;;;;;13.79;62.83;99296.95;1759113;79;26928;-59
2021/05/07 13:40:39;;;;;;;2.77;2.30;;;;;;;14.03;62.50;99308.73;1782589;79;25734;-59
2021/05/07 13:43:07;;;;;;;2.67;2.40;;;;;;;14.13;61.72;99315.77;1764522;79;25806;-60
2021/05/07 13:45:36;;;;;;;3.47;2.62;;;;;;;14.15;61.27;99314.84;1780458;79;26515;-60
2021/05/07 13:48:04;;;;;;;4.47;2.55;;;;;;;14.10;60.55;99312.98;1781709;79;25801;-59
2021/05/07 13:50:30;;;;;;;3.20;2.77;;;;;;;14.03;60.24;99313.61;1782485;79;25756;-60
2021/05/07 13:52:57;;;;;;;3.30;3.00;;;;;;;13.96;60.12;99305.28;1777754;79;25672;-71
2021/05/07 13:55:24;;;;;;;2.70;2.47;;;;;;;13.91;59.82;99311.00;1784189;79;26359;-73
2021/05/07 13:57:50;;;;;;;2.80;2.35;;;;;;;13.85;59.61;99311.86;1783422;79;25553;-73
2021/05/07 14:00:18;;;;;;;2.90;2.27;;;;;;;13.78;59.75;99317.14;1778952;79;25662;-73
2021/05/07 14:02:45;;;;;;;5.25;2.47;;;;;;;13.71;59.43;99316.98;1782825;79;25919;-73
2021/05/07 14:05:12;;;;;;;3.25;2.20;;;;;;;13.60;59.11;99320.24;1785559;79;25667;-73
2021/05/07 14:07:39;;;;;;;2.50;2.30;;;;;;;13.47;59.11;99328.27;1778553;79;25614;-72
2021/05/07 14:10:08;;;;;;;4.42;2.25;;;;;;;13.29;59.05;99331.09;1778568;79;25613;-73
2021/05/07 14:12:35;;;;;;;4.00;2.60;;;;;;;13.14;58.92;99328.00;1781089;79;25602;-75
2021/05/07 14:15:02;;;;;;;3.25;2.30;;;;;;;12.97;59.40;99339.98;1780858;79;25917;-76
2021/05/07 14:17:29;;;;;;;2.45;2.00;;;;;;;12.80;59.12;99330.23;1781645;79;26645;-75
2021/05/07 14:19:56;;;;;;;3.50;2.15;;;;;;;12.65;59.51;99330.44;1780939;79;25636;-78
2021/05/07 14:22:22;;;;;;;3.15;2.40;;;;;;;12.56;59.98;99336.56;1780642;79;26304;-77
2021/05/07 14:24:49;;;;;;;2.90;2.50;;;;;;;12.50;59.94;99343.38;1779083;79;25636;-77
2021/05/07 14:27:16;;;;;;;3.52;2.65;;;;;;;12.45;60.06;99353.12;1750467;79;27269;-76
2021/05/07 14:29:42;;;;;;;2.95;2.67;;;;;;;12.42;60.42;99351.87;1781864;79;25956;-78
2021/05/07 14:32:09;;;;;;;3.42;2.62;;;;;;;12.38;60.35;99351.53;1752547;79;25775;-76
2021/05/07 14:34:36;;;;;;;2.20;2.08;;;;;;;12.39;60.65;99350.41;1778661;79;26024;-78
2021/05/07 14:37:02;;;;;;;2.52;2.20;;;;;;;12.41;60.82;99358.98;1777457;79;26020;-76
2021/05/07 14:39:32;;;;;;;2.05;1.80;;;;;;;12.43;60.40;99362.95;1756812;79;25784;-73
2021/05/07 14:41:58;;;;;;;2.47;2.10;;;;;;;12.40;60.14;99358.78;1781671;79;25922;-75
2021/05/07 14:44:24;;;;;;;3.55;2.12;;;;;;;12.40;60.20;99351.43;1779804;79;25786;-73
2021/05/07 14:46:51;;;;;;;3.60;2.40;;;;;;;12.42;60.25;99359.22;1779999;79;25675;-74
2021/05/07 14:49:18;;;;;;;2.72;2.52;;;;;;;12.44;60.46;99357.73;1779312;79;25696;-75
2021/05/07 14:51:45;;;;;;;4.28;2.58;;;;;;;12.46;60.12;99362.27;1779472;79;25969;-73
2021/05/07 14:54:14;;;;;;;2.80;2.55;;;;;;;12.39;59.64;99367.47;1780116;79;25631;-72
2021/05/07 14:56:39;;;;;;;2.60;2.30;;;;;;;12.35;59.60;99368.52;1778933;79;25682;-73
2021/05/07 14:59:06;;;;;;;4.97;2.92;;;;;;;12.31;60.03;99371.13;1779453;79;25656;-75
2021/05/07 15:01:33;;;;;;;3.05;2.72;;;;;;;12.26;59.50;99383.53;1780924;79;25653;-74
2021/05/07 15:03:59;;;;;;;3.37;2.42;;;;;;;12.21;59.87;99375.09;1779299;79;25921;-74
2021/05/07 15:06:28;;;;;;;3.45;2.67;;;;;;;12.16;59.64;99375.33;1780380;79;25771;-74
2021/05/07 15:08:53;;;;;;;5.60;3.10;;;;;;;12.08;59.55;99373.53;1779537;79;25665;-72
2021/05/07 15:11:20;;;;;;;3.58;2.98;;;;;;;12.00;59.71;99378.50;1783577;79;25692;-73
2021/05/07 15:13:46;;;;;;;5.97;3.27;;;;;;;11.91;59.75;99380.77;1778379;79;25741;-72
2021/05/07 15:16:13;;;;;;;3.45;3.10;;;;;;;11.85;60.00;99383.47;1783456;79;25837;-72
2021/05/07 15:18:41;;;;;;;3.95;3.50;;;;;;;11.76;60.08;99376.00;1781243;79;25640;-73
2021/05/07 15:21:07;;;;;;;9.90;4.30;;;;;;;11.71;60.37;99386.52;1779985;79;25612;-72
2021/05/07 15:23:36;;;;;;;3.60;3.30;;;;;;;11.68;60.15;99387.73;1779512;79;25604;-72
2021/05/07 15:26:03;;;;;;;3.47;3.17;;;;;;;11.62;59.96;99380.98;1781373;79;25869;-71
2021/05/07 15:28:30;;;;;;;4.37;3.45;;;;;;;11.54;59.74;99386.17;1779360;79;26406;-72
2021/05/07 15:30:57;;;;;;;3.83;3.30;;;;;;;11.49;59.90;99386.93;1776564;79;25635;-73
2021/05/07 15:33:24;;;;;;;6.72;3.95;;;;;;;11.40;60.23;99387.82;1782830;79;26250;-72
2021/05/07 15:35:51;;;;;;;4.22;3.60;;;;;;;11.36;60.52;99388.84;1778471;79;25736;-73
2021/05/07 15:38:18;;;;;;;4.90;3.60;;;;;;;11.33;60.64;99391.65;1781744;78;26255;-73
2021/05/07 15:40:44;;;;;;;4.22;3.85;;;;;;;11.23;60.33;99398.06;1776949;79;25994;-74
2021/05/07 15:43:12;;;;;;;5.47;4.22;;;;;;;11.11;60.57;99394.19;1778044;79;25904;-74
2021/05/07 15:45:39;;;;;;;4.97;4.45;;;;;;;11.08;61.28;99398.13;1774424;79;25629;-73
2021/05/07 15:48:09;;;;;;;8.10;5.30;;;;;;;11.00;61.25;99403.30;1775360;79;25636;-73
2021/05/07 15:50:37;;;;;;;13.20;8.23;;;;;;;10.97;61.77;99402.61;1749319;79;25877;-75
2021/05/07 15:53:04;;;;;;;11.95;8.43;;;;;;;10.92;61.38;99406.09;1774493;79;26607;-75
2021/05/07 15:55:32;;;;;;;14.50;8.03;;;;;;;10.83;61.46;99402.91;1774683;79;26419;-75
2021/05/07 15:57:59;;;;;;;12.95;8.63;;;;;;;10.79;61.93;99405.23;1773145;79;25643;-75
2021/05/07 16:00:27;;;;;;;11.85;8.18;;;;;;;10.78;62.43;99404.45;1774285;79;25647;-74
2021/05/07 16:02:54;;;;;;;9.75;7.25;;;;;;;10.79;62.15;99406.02;1774651;79;25684;-75
2021/05/07 16:05:21;;;;;;;12.85;8.28;;;;;;;10.75;62.33;99410.52;1775862;79;25879;-75
2021/05/07 16:07:49;;;;;;;13.22;8.93;;;;;;;10.72;62.21;99416.59;1775877;79;25628;-75
2021/05/07 16:10:16;;;;;;;14.38;8.58;;;;;;;10.70;62.12;99405.89;1774681;79;25680;-76
2021/05/07 16:12:45;;;;;;;15.05;8.43;;;;;;;10.65;62.18;99405.52;1774273;79;25637;-73
2021/05/07 16:15:14;;;;;;;8.48;5.80;;;;;;;10.65;62.37;99408.22;1775757;79;26319;-72
2021/05/07 16:17:40;;;;;;;9.63;5.83;;;;;;;10.64;61.91;99410.69;1774958;79;27341;-73
2021/05/07 16:20:09;;;;;;;9.25;6.22;;;;;;;10.62;61.88;99416.45;1773726;79;25904;-73
2021/05/07 16:22:36;;;;;;;8.10;6.40;;;;;;;10.61;62.35;99410.02;1776615;79;25627;-73
2021/05/07 16:25:05;;;;;;;10.75;7.20;;;;;;;10.58;62.39;99420.92;1775182;79;25669;-73
2021/05/07 16:27:33;;;;;;;10.38;6.40;;;;;;;10.56;62.16;99428.58;1776242;79;25716;-74
2021/05/07 16:29:59;;;;;;;7.67;5.47;;;;;;;10.54;62.35;99427.31;1775901;79;25766;-73
2021/05/07 16:32:26;;;;;;;8.78;4.90;;;;;;;10.51;62.35;99427.98;1774624;79;25661;-72
2021/05/07 16:34:55;;;;;;;6.58;4.97;;;;;;;10.49;62.40;99430.20;1774792;79;25718;-73
2021/05/07 16:37:25;;;;;;;8.70;5.53;;;;;;;10.46;62.61;99431.67;1775739;79;25607;-72
2021/05/07 16:39:51;;;;;;;7.85;5.35;;;;;;;10.43;62.75;99435.03;1776366;79;25829;-73
2021/05/07 16:42:20;;;;;;;5.62;4.75;;;;;;;10.36;62.64;99437.47;1777634;79;26694;-74
2021/05/07 16:44:47;;;;;;;6.43;5.70;;;;;;;10.31;62.35;99441.11;1780361;79;26259;-74
2021/05/07 16:47:13;;;;;;;6.03;5.20;;;;;;;10.24;62.55;99447.03;1783121;79;25637;-75
2021/05/07 16:49:40;;;;;;;6.78;5.10;;;;;;;10.21;62.85;99444.20;1792960;79;25574;-75
2021/05/07 16:52:08;;;;;;;7.08;5.50;;;;;;;10.18;62.79;99440.79;1786551;79;25651;-59
2021/05/07 16:54:35;;;;;;;10.93;7.92;;;;;;;10.15;63.16;99446.30;1761777;81;25751;-59
2021/05/07 16:57:04;;;;;;;7.35;5.78;;;;;;;10.16;63.38;99447.09;1761514;79;25624;-60
2021/05/07 16:59:31;;;;;;;6.80;5.72;;;;;;;10.13;63.45;99449.09;1740584;81;25669;-59
2021/05/07 17:01:59;;;;;;;8.15;5.65;;;;;;;10.09;64.10;99451.65;1767241;79;26394;-59
2021/05/07 17:04:26;;;;;;;7.83;5.45;;;;;;;10.08;63.76;99455.48;1760636;79;25794;-58
2021/05/07 17:06:54;;;;;;;6.72;5.45;;;;;;;10.02;63.64;99455.43;1794244;79;25887;-73
2021/05/07 17:09:21;;;;;;;6.75;5.87;;;;;;;9.99;63.97;99464.17;1794963;79;25552;-72
2021/05/07 17:11:47;;;;;;;8.70;6.45;;;;;;;9.95;64.14;99472.70;1794643;79;25544;-74
2021/05/07 17:14:14;;;;;;;8.38;6.58;;;;;;;9.90;64.37;99469.05;1794503;79;25614;-75